map of TBO home
TBO - Airport
Location
City:  Tabora, Tabora, Tanzania
Name:Tabora Airport
ICAO:HTTB
IATA:TBO

Details
Type:Airport (Aerodrome, Airfield)
Latitude:504'35"S (-5.076388)
Longitude:3250'00"E (32.833333)
Elevation:3868 ft (1179 m)
Variation:0.08E (WMM2015 magnetic declination)
0.05 annual change
Runways:2
Longest:8399 × 141 ft (2560 × 43 m)

Time
Time Zone:UTC+3
Local Time:

Weather
TAF:HTTB 200500Z 2006/2106 00000KT 9999 SCT021 FEW022CB BKN080

Related Locations
Nearby:
Farthest:CXI: 11714 mi / 18853 km
Christmas Island (Kiritimati) [Cassidy Intl], L, KI

Find:

   beyond  
but within

Other Information
Maps:
NOTAMs:
Links:
Sources:

  
  • flag of Tanzania
  

Sectional Chart

Flight Planning
at skyvector.com

Satellite Image

Google Maps Satellite view

 

Copyright © 2004-2018 Karl L. Swartz. All rights reserved.
The Great Circle Mapper name and logo are trademarks of the Great Circle Mapper.
All other trademarks mentioned herein belong to their respective owners.
Please see credits for attibutions and further copyright information.

  Follow gcmap on Facebook Follow gcmap on Twitter Follow gcmap on Google+ GCmap on LinkedIn

hCard Microformat

Geo Microformat